sensor_id;sensor_type;location;lat;lon;timestamp;P1;durP1;ratioP1;P2;durP2;ratioP2
18302;SDS011;9277;37.980;23.748;2022-09-14T00:01:54;2.15;;;1.98;;
18302;SDS011;9277;37.980;23.748;2022-09-14T00:04:21;3.67;;;2.05;;
18302;SDS011;9277;37.980;23.748;2022-09-14T00:06:48;4.18;;;1.75;;
18302;SDS011;9277;37.980;23.748;2022-09-14T00:09:15;2.28;;;2.05;;
18302;SDS011;9277;37.980;23.748;2022-09-14T00:11:42;3.17;;;2.25;;
18302;SDS011;9277;37.980;23.748;2022-09-14T00:14:09;1.73;;;1.63;;
18302;SDS011;9277;37.980;23.748;2022-09-14T00:16:36;2.88;;;2.28;;
18302;SDS011;9277;37.980;23.748;2022-09-14T00:19:18;2.28;;;2.17;;
18302;SDS011;9277;37.980;23.748;2022-09-14T00:21:48;2.63;;;2.00;;
18302;SDS011;9277;37.980;23.748;2022-09-14T00:24:15;2.22;;;2.03;;
18302;SDS011;9277;37.980;23.748;2022-09-14T00:26:42;2.33;;;2.00;;
18302;SDS011;9277;37.980;23.748;2022-09-14T00:29:09;1.98;;;1.80;;
18302;SDS011;9277;37.980;23.748;2022-09-14T00:31:36;3.22;;;1.73;;
18302;SDS011;9277;37.980;23.748;2022-09-14T00:34:05;1.52;;;1.42;;
18302;SDS011;9277;37.980;23.748;2022-09-14T00:36:33;1.83;;;1.70;;
18302;SDS011;9277;37.980;23.748;2022-09-14T00:39:02;1.90;;;1.80;;
18302;SDS011;9277;37.980;23.748;2022-09-14T00:41:30;2.28;;;1.67;;
18302;SDS011;9277;37.980;23.748;2022-09-14T00:43:58;1.88;;;1.65;;
18302;SDS011;9277;37.980;23.748;2022-09-14T00:46:26;3.25;;;2.20;;
18302;SDS011;9277;37.980;23.748;2022-09-14T00:48:53;2.08;;;1.95;;
18302;SDS011;9277;37.980;23.748;2022-09-14T00:51:22;1.83;;;1.73;;
18302;SDS011;9277;37.980;23.748;2022-09-14T00:53:50;1.98;;;1.88;;
18302;SDS011;9277;37.980;23.748;2022-09-14T00:56:17;3.20;;;1.92;;
18302;SDS011;9277;37.980;23.748;2022-09-14T00:58:44;2.95;;;2.10;;
18302;SDS011;9277;37.980;23.748;2022-09-14T01:01:12;3.45;;;2.15;;
18302;SDS011;9277;37.980;23.748;2022-09-14T01:03:39;1.95;;;1.60;;
18302;SDS011;9277;37.980;23.748;2022-09-14T01:06:07;1.60;;;1.50;;
18302;SDS011;9277;37.980;23.748;2022-09-14T01:08:43;1.83;;;1.73;;
18302;SDS011;9277;37.980;23.748;2022-09-14T01:11:18;4.00;;;1.80;;
18302;SDS011;9277;37.980;23.748;2022-09-14T01:13:48;1.67;;;1.60;;
18302;SDS011;9277;37.980;23.748;2022-09-14T01:16:19;2.03;;;1.83;;
18302;SDS011;9277;37.980;23.748;2022-09-14T01:18:48;1.27;;;1.27;;
18302;SDS011;9277;37.980;23.748;2022-09-14T01:21:18;2.50;;;1.63;;
18302;SDS011;9277;37.980;23.748;2022-09-14T01:23:48;4.05;;;1.67;;
18302;SDS011;9277;37.980;23.748;2022-09-14T01:26:30;7.97;;;1.75;;
18302;SDS011;9277;37.980;23.748;2022-09-14T01:29:01;1.85;;;1.75;;
18302;SDS011;9277;37.980;23.748;2022-09-14T01:31:33;1.95;;;1.60;;
18302;SDS011;9277;37.980;23.748;2022-09-14T01:34:02;1.60;;;1.50;;
18302;SDS011;9277;37.980;23.748;2022-09-14T01:36:31;1.70;;;1.60;;
18302;SDS011;9277;37.980;23.748;2022-09-14T01:38:59;1.73;;;1.63;;
18302;SDS011;9277;37.980;23.748;2022-09-14T01:41:26;3.78;;;1.95;;
18302;SDS011;9277;37.980;23.748;2022-09-14T01:43:56;1.98;;;1.88;;
18302;SDS011;9277;37.980;23.748;2022-09-14T01:46:27;1.80;;;1.70;;
18302;SDS011;9277;37.980;23.748;2022-09-14T01:48:57;4.10;;;1.80;;
18302;SDS011;9277;37.980;23.748;2022-09-14T01:51:29;1.73;;;1.63;;
18302;SDS011;9277;37.980;23.748;2022-09-14T01:53:58;1.67;;;1.58;;
18302;SDS011;9277;37.980;23.748;2022-09-14T01:56:29;1.73;;;1.63;;
18302;SDS011;9277;37.980;23.748;2022-09-14T01:58:58;2.97;;;1.50;;
18302;SDS011;9277;37.980;23.748;2022-09-14T02:01:29;2.20;;;1.50;;
18302;SDS011;9277;37.980;23.748;2022-09-14T02:04:01;1.55;;;1.45;;
18302;SDS011;9277;37.980;23.748;2022-09-14T02:06:29;1.52;;;1.42;;
18302;SDS011;9277;37.980;23.748;2022-09-14T02:08:58;1.80;;;1.70;;
18302;SDS011;9277;37.980;23.748;2022-09-14T02:11:24;1.83;;;1.73;;
18302;SDS011;9277;37.980;23.748;2022-09-14T02:13:51;1.48;;;1.35;;
18302;SDS011;9277;37.980;23.748;2022-09-14T02:16:18;1.60;;;1.38;;
18302;SDS011;9277;37.980;23.748;2022-09-14T02:18:47;2.20;;;1.77;;
18302;SDS011;9277;37.980;23.748;2022-09-14T02:21:15;1.55;;;1.45;;
18302;SDS011;9277;37.980;23.748;2022-09-14T02:23:42;1.95;;;1.70;;
18302;SDS011;9277;37.980;23.748;2022-09-14T02:26:09;3.10;;;1.50;;
18302;SDS011;9277;37.980;23.748;2022-09-14T02:28:36;1.70;;;1.60;;
18302;SDS011;9277;37.980;23.748;2022-09-14T02:31:06;1.70;;;1.58;;
18302;SDS011;9277;37.980;23.748;2022-09-14T02:33:37;2.53;;;1.90;;
18302;SDS011;9277;37.980;23.748;2022-09-14T02:36:09;2.47;;;2.05;;
18302;SDS011;9277;37.980;23.748;2022-09-14T02:38:39;1.55;;;1.33;;
18302;SDS011;9277;37.980;23.748;2022-09-14T02:41:11;1.90;;;1.80;;
18302;SDS011;9277;37.980;23.748;2022-09-14T02:43:45;1.58;;;1.48;;
18302;SDS011;9277;37.980;23.748;2022-09-14T02:46:15;2.28;;;1.63;;
18302;SDS011;9277;37.980;23.748;2022-09-14T02:48:43;1.98;;;1.70;;
18302;SDS011;9277;37.980;23.748;2022-09-14T02:51:17;3.83;;;1.65;;
18302;SDS011;9277;37.980;23.748;2022-09-14T02:53:46;1.58;;;1.48;;
18302;SDS011;9277;37.980;23.748;2022-09-14T02:56:15;3.03;;;2.00;;
18302;SDS011;9277;37.980;23.748;2022-09-14T02:58:43;1.90;;;1.80;;
18302;SDS011;9277;37.980;23.748;2022-09-14T03:01:10;2.60;;;1.83;;
18302;SDS011;9277;37.980;23.748;2022-09-14T03:03:38;2.15;;;1.95;;
18302;SDS011;9277;37.980;23.748;2022-09-14T03:06:05;1.98;;;1.88;;
18302;SDS011;9277;37.980;23.748;2022-09-14T03:08:33;2.17;;;2.08;;
18302;SDS011;9277;37.980;23.748;2022-09-14T03:11:00;2.17;;;1.95;;
18302;SDS011;9277;37.980;23.748;2022-09-14T03:13:26;1.90;;;1.80;;
18302;SDS011;9277;37.980;23.748;2022-09-14T03:15:53;1.80;;;1.70;;
18302;SDS011;9277;37.980;23.748;2022-09-14T03:18:20;2.08;;;1.90;;
18302;SDS011;9277;37.980;23.748;2022-09-14T03:20:46;3.35;;;2.10;;
18302;SDS011;9277;37.980;23.748;2022-09-14T03:23:13;1.90;;;1.80;;
18302;SDS011;9277;37.980;23.748;2022-09-14T03:25:42;2.88;;;1.60;;
18302;SDS011;9277;37.980;23.748;2022-09-14T03:28:09;2.08;;;1.88;;
18302;SDS011;9277;37.980;23.748;2022-09-14T03:30:37;2.30;;;1.95;;
18302;SDS011;9277;37.980;23.748;2022-09-14T03:33:03;2.55;;;1.70;;
18302;SDS011;9277;37.980;23.748;2022-09-14T03:35:30;2.25;;;1.88;;
18302;SDS011;9277;37.980;23.748;2022-09-14T03:37:57;3.35;;;1.58;;
18302;SDS011;9277;37.980;23.748;2022-09-14T03:40:25;1.85;;;1.63;;
18302;SDS011;9277;37.980;23.748;2022-09-14T03:42:53;3.40;;;1.80;;
18302;SDS011;9277;37.980;23.748;2022-09-14T03:45:20;2.00;;;1.80;;
18302;SDS011;9277;37.980;23.748;2022-09-14T03:47:47;4.10;;;1.73;;
18302;SDS011;9277;37.980;23.748;2022-09-14T03:50:14;2.63;;;2.00;;
18302;SDS011;9277;37.980;23.748;2022-09-14T03:52:41;4.35;;;2.45;;
18302;SDS011;9277;37.980;23.748;2022-09-14T03:55:08;2.70;;;1.90;;
18302;SDS011;9277;37.980;23.748;2022-09-14T03:57:35;1.65;;;1.40;;
18302;SDS011;9277;37.980;23.748;2022-09-14T04:00:04;6.43;;;1.73;;
18302;SDS011;9277;37.980;23.748;2022-09-14T04:02:31;3.13;;;1.90;;
18302;SDS011;9277;37.980;23.748;2022-09-14T04:04:58;2.20;;;1.98;;
18302;SDS011;9277;37.980;23.748;2022-09-14T04:07:25;5.38;;;1.80;;
18302;SDS011;9277;37.980;23.748;2022-09-14T04:09:52;4.10;;;1.67;;
18302;SDS011;9277;37.980;23.748;2022-09-14T04:12:19;3.35;;;2.17;;
18302;SDS011;9277;37.980;23.748;2022-09-14T04:14:46;2.30;;;1.80;;
18302;SDS011;9277;37.980;23.748;2022-09-14T04:17:14;2.13;;;1.60;;
18302;SDS011;9277;37.980;23.748;2022-09-14T04:19:42;3.20;;;1.73;;
18302;SDS011;9277;37.980;23.748;2022-09-14T04:22:08;7.28;;;2.08;;
18302;SDS011;9277;37.980;23.748;2022-09-14T04:24:35;20.90;;;2.25;;
18302;SDS011;9277;37.980;23.748;2022-09-14T04:27:02;9.32;;;2.33;;
18302;SDS011;9277;37.980;23.748;2022-09-14T04:29:29;31.35;;;4.90;;
18302;SDS011;9277;37.980;23.748;2022-09-14T04:31:56;12.52;;;2.50;;
18302;SDS011;9277;37.980;23.748;2022-09-14T04:34:24;54.60;;;6.25;;
18302;SDS011;9277;37.980;23.748;2022-09-14T04:36:51;33.35;;;4.15;;
18302;SDS011;9277;37.980;23.748;2022-09-14T04:39:18;14.55;;;2.58;;
18302;SDS011;9277;37.980;23.748;2022-09-14T04:41:45;5.63;;;2.40;;
18302;SDS011;9277;37.980;23.748;2022-09-14T04:44:11;8.75;;;2.28;;
18302;SDS011;9277;37.980;23.748;2022-09-14T04:46:38;5.55;;;2.63;;
18302;SDS011;9277;37.980;23.748;2022-09-14T04:49:06;2.92;;;2.03;;
18302;SDS011;9277;37.980;23.748;2022-09-14T04:51:35;6.13;;;2.10;;
18302;SDS011;9277;37.980;23.748;2022-09-14T04:54:03;4.10;;;2.80;;
18302;SDS011;9277;37.980;23.748;2022-09-14T04:56:30;2.42;;;1.83;;
18302;SDS011;9277;37.980;23.748;2022-09-14T04:58:58;3.33;;;2.22;;
18302;SDS011;9277;37.980;23.748;2022-09-14T05:01:26;3.47;;;2.30;;
18302;SDS011;9277;37.980;23.748;2022-09-14T05:03:53;2.28;;;1.95;;
18302;SDS011;9277;37.980;23.748;2022-09-14T05:06:21;5.25;;;2.00;;
18302;SDS011;9277;37.980;23.748;2022-09-14T05:08:49;3.00;;;2.05;;
18302;SDS011;9277;37.980;23.748;2022-09-14T05:11:17;3.47;;;1.80;;
18302;SDS011;9277;37.980;23.748;2022-09-14T05:13:44;11.35;;;2.50;;
18302;SDS011;9277;37.980;23.748;2022-09-14T05:16:13;6.27;;;2.57;;
18302;SDS011;9277;37.980;23.748;2022-09-14T05:18:40;14.45;;;3.22;;
18302;SDS011;9277;37.980;23.748;2022-09-14T05:21:09;34.50;;;4.40;;
18302;SDS011;9277;37.980;23.748;2022-09-14T05:23:36;40.72;;;10.13;;
18302;SDS011;9277;37.980;23.748;2022-09-14T05:26:04;22.30;;;8.13;;
18302;SDS011;9277;37.980;23.748;2022-09-14T05:28:31;10.00;;;4.10;;
18302;SDS011;9277;37.980;23.748;2022-09-14T05:30:58;7.88;;;2.75;;
18302;SDS011;9277;37.980;23.748;2022-09-14T05:33:25;7.60;;;2.75;;
18302;SDS011;9277;37.980;23.748;2022-09-14T05:35:52;2.90;;;2.30;;
18302;SDS011;9277;37.980;23.748;2022-09-14T05:38:26;3.08;;;2.03;;
18302;SDS011;9277;37.980;23.748;2022-09-14T05:40:53;2.30;;;2.10;;
18302;SDS011;9277;37.980;23.748;2022-09-14T05:43:21;6.70;;;2.20;;
18302;SDS011;9277;37.980;23.748;2022-09-14T05:45:48;2.75;;;1.90;;
18302;SDS011;9277;37.980;23.748;2022-09-14T05:48:15;3.30;;;2.30;;
18302;SDS011;9277;37.980;23.748;2022-09-14T05:50:42;3.22;;;1.90;;
18302;SDS011;9277;37.980;23.748;2022-09-14T05:53:09;2.72;;;2.53;;
18302;SDS011;9277;37.980;23.748;2022-09-14T05:55:35;2.70;;;2.40;;
18302;SDS011;9277;37.980;23.748;2022-09-14T05:58:02;3.97;;;2.53;;
18302;SDS011;9277;37.980;23.748;2022-09-14T06:00:31;2.60;;;2.40;;
18302;SDS011;9277;37.980;23.748;2022-09-14T06:02:58;3.30;;;2.30;;
18302;SDS011;9277;37.980;23.748;2022-09-14T06:05:24;3.35;;;2.40;;
18302;SDS011;9277;37.980;23.748;2022-09-14T06:07:52;7.72;;;2.65;;
18302;SDS011;9277;37.980;23.748;2022-09-14T06:10:19;11.18;;;2.85;;
18302;SDS011;9277;37.980;23.748;2022-09-14T06:12:46;3.70;;;2.60;;
18302;SDS011;9277;37.980;23.748;2022-09-14T06:15:13;2.63;;;2.22;;
18302;SDS011;9277;37.980;23.748;2022-09-14T06:17:41;5.05;;;2.40;;
18302;SDS011;9277;37.980;23.748;2022-09-14T06:20:08;3.20;;;2.10;;
18302;SDS011;9277;37.980;23.748;2022-09-14T06:22:35;5.32;;;2.30;;
18302;SDS011;9277;37.980;23.748;2022-09-14T06:25:02;4.95;;;2.05;;
18302;SDS011;9277;37.980;23.748;2022-09-14T06:27:29;8.20;;;2.58;;
18302;SDS011;9277;37.980;23.748;2022-09-14T06:29:55;3.00;;;2.10;;
18302;SDS011;9277;37.980;23.748;2022-09-14T06:32:22;7.38;;;2.20;;
18302;SDS011;9277;37.980;23.748;2022-09-14T06:34:50;3.03;;;2.22;;
18302;SDS011;9277;37.980;23.748;2022-09-14T06:37:17;2.88;;;2.50;;
18302;SDS011;9277;37.980;23.748;2022-09-14T06:39:44;2.90;;;2.58;;
18302;SDS011;9277;37.980;23.748;2022-09-14T06:42:10;5.50;;;2.10;;
18302;SDS011;9277;37.980;23.748;2022-09-14T06:44:37;3.85;;;2.50;;
18302;SDS011;9277;37.980;23.748;2022-09-14T06:47:04;3.47;;;2.30;;
18302;SDS011;9277;37.980;23.748;2022-09-14T06:49:31;15.50;;;3.00;;
18302;SDS011;9277;37.980;23.748;2022-09-14T06:51:59;8.02;;;2.88;;
18302;SDS011;9277;37.980;23.748;2022-09-14T06:54:26;2.35;;;2.15;;
18302;SDS011;9277;37.980;23.748;2022-09-14T06:56:53;3.38;;;2.10;;
18302;SDS011;9277;37.980;23.748;2022-09-14T06:59:19;2.67;;;2.00;;
18302;SDS011;9277;37.980;23.748;2022-09-14T07:01:46;7.30;;;2.28;;
18302;SDS011;9277;37.980;23.748;2022-09-14T07:04:13;4.30;;;2.50;;
18302;SDS011;9277;37.980;23.748;2022-09-14T07:06:41;3.70;;;2.10;;
18302;SDS011;9277;37.980;23.748;2022-09-14T07:09:09;2.80;;;1.95;;
18302;SDS011;9277;37.980;23.748;2022-09-14T07:11:36;2.17;;;1.98;;
18302;SDS011;9277;37.980;23.748;2022-09-14T07:14:04;3.20;;;2.10;;
18302;SDS011;9277;37.980;23.748;2022-09-14T07:16:31;5.20;;;2.17;;
18302;SDS011;9277;37.980;23.748;2022-09-14T07:18:59;15.85;;;9.70;;
18302;SDS011;9277;37.980;23.748;2022-09-14T07:21:27;35.78;;;18.88;;
18302;SDS011;9277;37.980;23.748;2022-09-14T07:23:55;3.03;;;2.80;;
18302;SDS011;9277;37.980;23.748;2022-09-14T07:26:24;4.65;;;2.90;;
18302;SDS011;9277;37.980;23.748;2022-09-14T07:28:52;4.63;;;2.20;;
18302;SDS011;9277;37.980;23.748;2022-09-14T07:31:20;2.42;;;2.03;;
18302;SDS011;9277;37.980;23.748;2022-09-14T07:33:50;2.60;;;2.05;;
18302;SDS011;9277;37.980;23.748;2022-09-14T07:36:17;5.75;;;2.00;;
18302;SDS011;9277;37.980;23.748;2022-09-14T07:38:44;2.17;;;2.00;;
18302;SDS011;9277;37.980;23.748;2022-09-14T07:41:10;2.00;;;1.90;;
18302;SDS011;9277;37.980;23.748;2022-09-14T07:43:38;6.88;;;1.88;;
18302;SDS011;9277;37.980;23.748;2022-09-14T07:46:05;2.88;;;2.22;;
18302;SDS011;9277;37.980;23.748;2022-09-14T07:48:33;5.38;;;2.45;;
18302;SDS011;9277;37.980;23.748;2022-09-14T07:51:00;3.53;;;1.98;;
18302;SDS011;9277;37.980;23.748;2022-09-14T07:53:27;5.57;;;3.80;;
18302;SDS011;9277;37.980;23.748;2022-09-14T07:55:56;3.63;;;3.03;;
18302;SDS011;9277;37.980;23.748;2022-09-14T07:58:23;3.38;;;3.08;;
18302;SDS011;9277;37.980;23.748;2022-09-14T08:00:51;3.38;;;3.08;;
18302;SDS011;9277;37.980;23.748;2022-09-14T08:03:22;2.42;;;2.22;;
18302;SDS011;9277;37.980;23.748;2022-09-14T08:05:56;13.88;;;7.97;;
18302;SDS011;9277;37.980;23.748;2022-09-14T08:08:23;2.53;;;2.30;;
18302;SDS011;9277;37.980;23.748;2022-09-14T08:10:50;3.00;;;1.90;;
18302;SDS011;9277;37.980;23.748;2022-09-14T08:13:16;2.78;;;2.30;;
18302;SDS011;9277;37.980;23.748;2022-09-14T08:15:43;4.70;;;2.45;;
18302;SDS011;9277;37.980;23.748;2022-09-14T08:18:11;2.97;;;1.92;;
18302;SDS011;9277;37.980;23.748;2022-09-14T08:20:39;3.33;;;2.35;;
18302;SDS011;9277;37.980;23.748;2022-09-14T08:23:05;3.53;;;2.55;;
18302;SDS011;9277;37.980;23.748;2022-09-14T08:25:32;2.10;;;1.90;;
18302;SDS011;9277;37.980;23.748;2022-09-14T08:27:59;4.63;;;2.03;;
18302;SDS011;9277;37.980;23.748;2022-09-14T08:30:26;7.30;;;1.80;;
18302;SDS011;9277;37.980;23.748;2022-09-14T08:32:53;2.00;;;1.90;;
18302;SDS011;9277;37.980;23.748;2022-09-14T08:35:21;2.38;;;2.17;;
18302;SDS011;9277;37.980;23.748;2022-09-14T08:37:48;2.20;;;2.00;;
18302;SDS011;9277;37.980;23.748;2022-09-14T08:40:14;2.10;;;1.90;;
18302;SDS011;9277;37.980;23.748;2022-09-14T08:42:42;1.98;;;1.88;;
18302;SDS011;9277;37.980;23.748;2022-09-14T08:45:10;3.85;;;2.15;;
18302;SDS011;9277;37.980;23.748;2022-09-14T08:47:37;2.47;;;2.10;;
18302;SDS011;9277;37.980;23.748;2022-09-14T08:50:09;5.43;;;2.33;;
18302;SDS011;9277;37.980;23.748;2022-09-14T08:52:39;1.90;;;1.80;;
18302;SDS011;9277;37.980;23.748;2022-09-14T08:55:14;4.70;;;2.15;;
18302;SDS011;9277;37.980;23.748;2022-09-14T08:57:43;2.00;;;1.90;;
18302;SDS011;9277;37.980;23.748;2022-09-14T09:00:11;2.30;;;2.10;;
18302;SDS011;9277;37.980;23.748;2022-09-14T09:02:45;2.08;;;1.98;;
18302;SDS011;9277;37.980;23.748;2022-09-14T09:05:24;2.50;;;2.00;;
18302;SDS011;9277;37.980;23.748;2022-09-14T09:07:57;1.80;;;1.70;;
18302;SDS011;9277;37.980;23.748;2022-09-14T09:10:27;1.92;;;1.83;;
18302;SDS011;9277;37.980;23.748;2022-09-14T09:12:55;1.80;;;1.70;;
18302;SDS011;9277;37.980;23.748;2022-09-14T09:15:25;2.75;;;2.13;;
18302;SDS011;9277;37.980;23.748;2022-09-14T09:17:53;6.15;;;2.20;;
18302;SDS011;9277;37.980;23.748;2022-09-14T09:20:22;1.83;;;1.73;;
18302;SDS011;9277;37.980;23.748;2022-09-14T09:22:51;2.10;;;1.77;;
18302;SDS011;9277;37.980;23.748;2022-09-14T09:25:21;1.70;;;1.60;;
18302;SDS011;9277;37.980;23.748;2022-09-14T09:27:49;47.03;;;13.88;;
18302;SDS011;9277;37.980;23.748;2022-09-14T09:30:16;41.75;;;16.80;;
18302;SDS011;9277;37.980;23.748;2022-09-14T09:32:43;72.78;;;26.08;;
18302;SDS011;9277;37.980;23.748;2022-09-14T09:35:12;25.27;;;7.60;;
18302;SDS011;9277;37.980;23.748;2022-09-14T09:37:39;19.67;;;4.80;;
18302;SDS011;9277;37.980;23.748;2022-09-14T09:40:12;9.48;;;4.18;;
18302;SDS011;9277;37.980;23.748;2022-09-14T09:42:41;6.00;;;2.83;;
18302;SDS011;9277;37.980;23.748;2022-09-14T09:45:31;5.07;;;3.22;;
18302;SDS011;9277;37.980;23.748;2022-09-14T09:48:11;3.63;;;2.80;;
18302;SDS011;9277;37.980;23.748;2022-09-14T09:50:45;3.55;;;2.60;;
18302;SDS011;9277;37.980;23.748;2022-09-14T09:53:13;2.17;;;2.00;;
18302;SDS011;9277;37.980;23.748;2022-09-14T09:55:40;2.10;;;1.90;;
18302;SDS011;9277;37.980;23.748;2022-09-14T09:58:26;2.75;;;2.10;;
18302;SDS011;9277;37.980;23.748;2022-09-14T10:00:54;2.97;;;1.98;;
18302;SDS011;9277;37.980;23.748;2022-09-14T10:03:25;2.90;;;1.85;;
18302;SDS011;9277;37.980;23.748;2022-09-14T10:05:58;4.07;;;2.33;;
18302;SDS011;9277;37.980;23.748;2022-09-14T10:08:26;2.60;;;2.38;;
18302;SDS011;9277;37.980;23.748;2022-09-14T10:10:58;2.38;;;2.17;;
18302;SDS011;9277;37.980;23.748;2022-09-14T10:13:28;2.30;;;2.17;;
18302;SDS011;9277;37.980;23.748;2022-09-14T10:16:03;2.38;;;2.10;;
18302;SDS011;9277;37.980;23.748;2022-09-14T10:18:30;2.22;;;1.90;;
18302;SDS011;9277;37.980;23.748;2022-09-14T10:21:04;2.10;;;2.00;;
18302;SDS011;9277;37.980;23.748;2022-09-14T10:23:33;2.58;;;2.35;;
18302;SDS011;9277;37.980;23.748;2022-09-14T10:26:21;2.00;;;1.90;;
18302;SDS011;9277;37.980;23.748;2022-09-14T10:28:50;2.15;;;2.00;;
18302;SDS011;9277;37.980;23.748;2022-09-14T10:31:21;2.35;;;1.92;;
18302;SDS011;9277;37.980;23.748;2022-09-14T10:33:49;1.92;;;1.83;;
18302;SDS011;9277;37.980;23.748;2022-09-14T10:36:18;5.97;;;2.00;;
18302;SDS011;9277;37.980;23.748;2022-09-14T10:38:48;2.08;;;1.98;;
18302;SDS011;9277;37.980;23.748;2022-09-14T10:41:20;2.42;;;2.08;;
18302;SDS011;9277;37.980;23.748;2022-09-14T10:43:53;2.20;;;2.00;;
18302;SDS011;9277;37.980;23.748;2022-09-14T10:46:24;2.30;;;2.10;;
18302;SDS011;9277;37.980;23.748;2022-09-14T10:48:57;4.57;;;2.15;;
18302;SDS011;9277;37.980;23.748;2022-09-14T10:51:30;5.22;;;2.17;;
18302;SDS011;9277;37.980;23.748;2022-09-14T10:54:02;2.58;;;2.35;;
18302;SDS011;9277;37.980;23.748;2022-09-14T10:56:33;2.40;;;2.20;;
18302;SDS011;9277;37.980;23.748;2022-09-14T10:59:08;4.13;;;2.47;;
18302;SDS011;9277;37.980;23.748;2022-09-14T11:01:51;2.17;;;2.08;;
18302;SDS011;9277;37.980;23.748;2022-09-14T11:04:25;3.47;;;2.25;;
18302;SDS011;9277;37.980;23.748;2022-09-14T11:06:57;2.50;;;2.30;;
18302;SDS011;9277;37.980;23.748;2022-09-14T11:09:26;3.53;;;2.58;;
18302;SDS011;9277;37.980;23.748;2022-09-14T11:11:57;2.85;;;2.28;;
18302;SDS011;9277;37.980;23.748;2022-09-14T11:14:33;7.45;;;2.83;;
18302;SDS011;9277;37.980;23.748;2022-09-14T11:17:07;2.50;;;2.30;;
18302;SDS011;9277;37.980;23.748;2022-09-14T11:19:38;2.88;;;2.65;;
18302;SDS011;9277;37.980;23.748;2022-09-14T11:22:09;5.18;;;3.17;;
18302;SDS011;9277;37.980;23.748;2022-09-14T11:24:39;2.65;;;2.45;;
18302;SDS011;9277;37.980;23.748;2022-09-14T11:27:08;2.47;;;2.28;;
18302;SDS011;9277;37.980;23.748;2022-09-14T11:29:39;3.13;;;2.60;;
18302;SDS011;9277;37.980;23.748;2022-09-14T11:32:09;2.50;;;2.30;;
18302;SDS011;9277;37.980;23.748;2022-09-14T11:34:38;2.85;;;2.60;;
18302;SDS011;9277;37.980;23.748;2022-09-14T11:37:07;2.70;;;2.50;;
18302;SDS011;9277;37.980;23.748;2022-09-14T11:39:35;3.33;;;2.70;;
18302;SDS011;9277;37.980;23.748;2022-09-14T11:42:04;4.10;;;2.35;;
18302;SDS011;9277;37.980;23.748;2022-09-14T11:44:33;4.75;;;2.92;;
18302;SDS011;9277;37.980;23.748;2022-09-14T11:47:04;2.70;;;2.45;;
18302;SDS011;9277;37.980;23.748;2022-09-14T11:49:34;3.50;;;2.80;;
18302;SDS011;9277;37.980;23.748;2022-09-14T11:52:06;4.05;;;2.60;;
18302;SDS011;9277;37.980;23.748;2022-09-14T11:54:37;2.40;;;2.20;;
18302;SDS011;9277;37.980;23.748;2022-09-14T11:57:05;2.55;;;2.30;;
18302;SDS011;9277;37.980;23.748;2022-09-14T12:10:32;3.60;;;2.40;;
18302;SDS011;9277;37.980;23.748;2022-09-14T12:13:18;3.05;;;2.60;;
18302;SDS011;9277;37.980;23.748;2022-09-14T12:15:45;5.22;;;2.85;;
18302;SDS011;9277;37.980;23.748;2022-09-14T12:18:22;3.15;;;2.60;;
18302;SDS011;9277;37.980;23.748;2022-09-14T12:20:58;3.50;;;3.00;;
18302;SDS011;9277;37.980;23.748;2022-09-14T12:23:26;4.07;;;2.90;;
18302;SDS011;9277;37.980;23.748;2022-09-14T12:25:57;7.27;;;3.40;;
18302;SDS011;9277;37.980;23.748;2022-09-14T12:28:27;11.27;;;3.50;;
18302;SDS011;9277;37.980;23.748;2022-09-14T12:31:05;3.80;;;3.03;;
18302;SDS011;9277;37.980;23.748;2022-09-14T12:39:09;4.20;;;2.58;;
18302;SDS011;9277;37.980;23.748;2022-09-14T12:42:00;3.85;;;2.30;;
18302;SDS011;9277;37.980;23.748;2022-09-14T12:44:28;2.92;;;2.63;;
18302;SDS011;9277;37.980;23.748;2022-09-14T12:46:55;4.90;;;2.70;;
18302;SDS011;9277;37.980;23.748;2022-09-14T12:52:08;3.35;;;3.05;;
18302;SDS011;9277;37.980;23.748;2022-09-14T12:54:41;3.47;;;2.65;;
18302;SDS011;9277;37.980;23.748;2022-09-14T12:57:16;3.38;;;2.45;;
18302;SDS011;9277;37.980;23.748;2022-09-14T12:59:46;2.65;;;2.45;;
18302;SDS011;9277;37.980;23.748;2022-09-14T13:02:22;2.45;;;2.25;;
18302;SDS011;9277;37.980;23.748;2022-09-14T13:04:56;2.38;;;2.20;;
18302;SDS011;9277;37.980;23.748;2022-09-14T13:07:24;2.90;;;2.60;;
18302;SDS011;9277;37.980;23.748;2022-09-14T13:09:54;3.97;;;2.50;;
18302;SDS011;9277;37.980;23.748;2022-09-14T13:12:24;2.45;;;2.25;;
18302;SDS011;9277;37.980;23.748;2022-09-14T13:14:55;2.92;;;2.58;;
18302;SDS011;9277;37.980;23.748;2022-09-14T13:17:23;3.03;;;2.72;;
18302;SDS011;9277;37.980;23.748;2022-09-14T13:19:53;3.10;;;2.80;;
18302;SDS011;9277;37.980;23.748;2022-09-14T13:22:21;2.55;;;2.35;;
18302;SDS011;9277;37.980;23.748;2022-09-14T13:24:49;2.47;;;2.38;;
18302;SDS011;9277;37.980;23.748;2022-09-14T13:27:18;3.25;;;2.70;;
18302;SDS011;9277;37.980;23.748;2022-09-14T13:29:47;3.00;;;2.65;;
18302;SDS011;9277;37.980;23.748;2022-09-14T13:32:22;2.58;;;2.38;;
18302;SDS011;9277;37.980;23.748;2022-09-14T13:34:49;2.78;;;2.50;;
18302;SDS011;9277;37.980;23.748;2022-09-14T13:37:16;2.55;;;2.35;;
18302;SDS011;9277;37.980;23.748;2022-09-14T13:39:47;3.42;;;2.67;;
18302;SDS011;9277;37.980;23.748;2022-09-14T13:42:15;5.78;;;2.70;;
18302;SDS011;9277;37.980;23.748;2022-09-14T13:44:42;2.53;;;2.33;;
18302;SDS011;9277;37.980;23.748;2022-09-14T13:47:13;4.05;;;2.97;;
18302;SDS011;9277;37.980;23.748;2022-09-14T13:49:40;2.78;;;2.53;;
18302;SDS011;9277;37.980;23.748;2022-09-14T13:55:16;3.83;;;2.55;;
18302;SDS011;9277;37.980;23.748;2022-09-14T14:00:24;4.03;;;2.58;;
18302;SDS011;9277;37.980;23.748;2022-09-14T14:02:53;5.85;;;2.80;;
18302;SDS011;9277;37.980;23.748;2022-09-14T14:05:24;3.10;;;2.80;;
18302;SDS011;9277;37.980;23.748;2022-09-14T14:07:52;4.43;;;2.45;;
18302;SDS011;9277;37.980;23.748;2022-09-14T14:10:23;2.40;;;2.20;;
18302;SDS011;9277;37.980;23.748;2022-09-14T14:12:50;2.65;;;2.38;;
18302;SDS011;9277;37.980;23.748;2022-09-14T14:15:36;5.18;;;2.70;;
18302;SDS011;9277;37.980;23.748;2022-09-14T14:20:50;3.65;;;2.88;;
18302;SDS011;9277;37.980;23.748;2022-09-14T14:23:18;3.05;;;2.85;;
18302;SDS011;9277;37.980;23.748;2022-09-14T14:25:48;3.50;;;2.60;;
18302;SDS011;9277;37.980;23.748;2022-09-14T14:28:17;4.00;;;2.50;;
18302;SDS011;9277;37.980;23.748;2022-09-14T14:30:44;7.35;;;2.85;;
18302;SDS011;9277;37.980;23.748;2022-09-14T14:33:12;3.40;;;2.33;;
18302;SDS011;9277;37.980;23.748;2022-09-14T14:35:39;5.35;;;3.83;;
18302;SDS011;9277;37.980;23.748;2022-09-14T14:38:07;3.22;;;2.78;;
18302;SDS011;9277;37.980;23.748;2022-09-14T14:40:34;2.42;;;2.22;;
18302;SDS011;9277;37.980;23.748;2022-09-14T14:43:02;2.88;;;2.67;;
18302;SDS011;9277;37.980;23.748;2022-09-14T14:45:30;2.50;;;2.30;;
18302;SDS011;9277;37.980;23.748;2022-09-14T14:47:57;4.55;;;2.40;;
18302;SDS011;9277;37.980;23.748;2022-09-14T14:50:26;3.55;;;2.42;;
18302;SDS011;9277;37.980;23.748;2022-09-14T14:52:53;2.95;;;2.63;;
18302;SDS011;9277;37.980;23.748;2022-09-14T14:55:22;2.92;;;2.72;;
18302;SDS011;9277;37.980;23.748;2022-09-14T14:57:50;2.70;;;2.50;;
18302;SDS011;9277;37.980;23.748;2022-09-14T15:00:17;2.80;;;2.60;;
18302;SDS011;9277;37.980;23.748;2022-09-14T15:02:44;5.28;;;2.50;;
18302;SDS011;9277;37.980;23.748;2022-09-14T15:05:11;3.17;;;2.25;;
18302;SDS011;9277;37.980;23.748;2022-09-14T15:07:38;3.00;;;2.78;;
18302;SDS011;9277;37.980;23.748;2022-09-14T15:10:05;2.72;;;2.53;;
18302;SDS011;9277;37.980;23.748;2022-09-14T15:12:34;2.88;;;2.65;;
18302;SDS011;9277;37.980;23.748;2022-09-14T15:15:01;2.58;;;2.30;;
18302;SDS011;9277;37.980;23.748;2022-09-14T15:17:27;4.30;;;2.80;;
18302;SDS011;9277;37.980;23.748;2022-09-14T15:19:54;2.67;;;2.47;;
18302;SDS011;9277;37.980;23.748;2022-09-14T15:22:21;2.92;;;2.67;;
18302;SDS011;9277;37.980;23.748;2022-09-14T15:24:48;4.38;;;3.08;;